sensor_id;sensor_type;location;lat;lon;timestamp;P1;durP1;ratioP1;P2;durP2;ratioP2
53961;SDS011;39868;53.398;6.564;2022-07-10T00:00:29;3.92;;;1.73;;
53961;SDS011;39868;53.398;6.564;2022-07-10T00:02:58;8.00;;;2.05;;
53961;SDS011;39868;53.398;6.564;2022-07-10T00:05:26;3.47;;;1.90;;
53961;SDS011;39868;53.398;6.564;2022-07-10T00:07:53;6.20;;;2.00;;
53961;SDS011;39868;53.398;6.564;2022-07-10T00:10:21;6.70;;;1.90;;
53961;SDS011;39868;53.398;6.564;2022-07-10T00:12:52;5.40;;;2.25;;
53961;SDS011;39868;53.398;6.564;2022-07-10T00:15:20;8.90;;;2.22;;
53961;SDS011;39868;53.398;6.564;2022-07-10T00:17:47;2.45;;;1.90;;
53961;SDS011;39868;53.398;6.564;2022-07-10T00:20:16;2.53;;;1.70;;
53961;SDS011;39868;53.398;6.564;2022-07-10T00:22:44;3.05;;;1.83;;
53961;SDS011;39868;53.398;6.564;2022-07-10T00:25:12;3.05;;;2.00;;
53961;SDS011;39868;53.398;6.564;2022-07-10T00:27:40;4.35;;;2.42;;
53961;SDS011;39868;53.398;6.564;2022-07-10T00:30:10;2.95;;;1.70;;
53961;SDS011;39868;53.398;6.564;2022-07-10T00:32:38;2.72;;;1.70;;
53961;SDS011;39868;53.398;6.564;2022-07-10T00:35:06;4.22;;;1.98;;
53961;SDS011;39868;53.398;6.564;2022-07-10T00:37:34;5.47;;;2.08;;
53961;SDS011;39868;53.398;6.564;2022-07-10T00:40:03;2.58;;;2.22;;
53961;SDS011;39868;53.398;6.564;2022-07-10T00:42:34;3.95;;;2.00;;
53961;SDS011;39868;53.398;6.564;2022-07-10T00:45:01;2.92;;;1.70;;
53961;SDS011;39868;53.398;6.564;2022-07-10T00:47:29;1.73;;;1.60;;
53961;SDS011;39868;53.398;6.564;2022-07-10T00:49:56;3.60;;;2.17;;
53961;SDS011;39868;53.398;6.564;2022-07-10T00:52:23;6.43;;;1.80;;
53961;SDS011;39868;53.398;6.564;2022-07-10T00:54:51;2.80;;;1.92;;
53961;SDS011;39868;53.398;6.564;2022-07-10T00:57:19;3.78;;;2.10;;
53961;SDS011;39868;53.398;6.564;2022-07-10T00:59:48;3.20;;;2.03;;
53961;SDS011;39868;53.398;6.564;2022-07-10T01:02:16;2.85;;;2.08;;
53961;SDS011;39868;53.398;6.564;2022-07-10T01:04:44;5.22;;;2.08;;
53961;SDS011;39868;53.398;6.564;2022-07-10T01:07:12;3.17;;;1.98;;
53961;SDS011;39868;53.398;6.564;2022-07-10T01:09:42;4.30;;;2.28;;
53961;SDS011;39868;53.398;6.564;2022-07-10T01:12:10;3.63;;;2.55;;
53961;SDS011;39868;53.398;6.564;2022-07-10T01:14:39;4.32;;;1.85;;
53961;SDS011;39868;53.398;6.564;2022-07-10T01:17:08;7.97;;;2.08;;
53961;SDS011;39868;53.398;6.564;2022-07-10T01:19:36;3.45;;;2.10;;
53961;SDS011;39868;53.398;6.564;2022-07-10T01:22:04;2.70;;;1.90;;
53961;SDS011;39868;53.398;6.564;2022-07-10T01:24:31;6.72;;;2.38;;
53961;SDS011;39868;53.398;6.564;2022-07-10T01:26:59;4.13;;;2.08;;
53961;SDS011;39868;53.398;6.564;2022-07-10T01:29:26;4.88;;;2.00;;
53961;SDS011;39868;53.398;6.564;2022-07-10T01:31:56;4.20;;;2.03;;
53961;SDS011;39868;53.398;6.564;2022-07-10T01:34:26;5.75;;;2.25;;
53961;SDS011;39868;53.398;6.564;2022-07-10T01:36:54;3.70;;;2.20;;
53961;SDS011;39868;53.398;6.564;2022-07-10T01:39:21;7.53;;;2.35;;
53961;SDS011;39868;53.398;6.564;2022-07-10T01:41:49;6.32;;;2.30;;
53961;SDS011;39868;53.398;6.564;2022-07-10T01:44:16;4.82;;;2.78;;
53961;SDS011;39868;53.398;6.564;2022-07-10T01:46:45;6.13;;;2.08;;
53961;SDS011;39868;53.398;6.564;2022-07-10T01:49:13;3.15;;;2.00;;
53961;SDS011;39868;53.398;6.564;2022-07-10T01:51:41;6.68;;;2.63;;
53961;SDS011;39868;53.398;6.564;2022-07-10T01:54:08;6.07;;;2.28;;
53961;SDS011;39868;53.398;6.564;2022-07-10T01:56:39;5.25;;;2.22;;
53961;SDS011;39868;53.398;6.564;2022-07-10T01:59:06;3.75;;;1.80;;
53961;SDS011;39868;53.398;6.564;2022-07-10T02:01:34;3.42;;;2.10;;
53961;SDS011;39868;53.398;6.564;2022-07-10T02:04:02;2.22;;;1.90;;
53961;SDS011;39868;53.398;6.564;2022-07-10T02:06:48;3.88;;;2.10;;
53961;SDS011;39868;53.398;6.564;2022-07-10T02:09:15;2.70;;;1.90;;
53961;SDS011;39868;53.398;6.564;2022-07-10T02:11:43;2.28;;;1.73;;
53961;SDS011;39868;53.398;6.564;2022-07-10T02:14:10;2.63;;;1.80;;
53961;SDS011;39868;53.398;6.564;2022-07-10T02:16:38;2.17;;;1.98;;
53961;SDS011;39868;53.398;6.564;2022-07-10T02:19:05;6.32;;;1.90;;
53961;SDS011;39868;53.398;6.564;2022-07-10T02:21:33;2.90;;;1.92;;
53961;SDS011;39868;53.398;6.564;2022-07-10T02:24:00;4.05;;;1.98;;
53961;SDS011;39868;53.398;6.564;2022-07-10T02:26:27;2.88;;;1.80;;
53961;SDS011;39868;53.398;6.564;2022-07-10T02:28:55;3.08;;;2.00;;
53961;SDS011;39868;53.398;6.564;2022-07-10T02:31:22;2.17;;;1.80;;
53961;SDS011;39868;53.398;6.564;2022-07-10T02:33:50;3.15;;;1.90;;
53961;SDS011;39868;53.398;6.564;2022-07-10T02:36:17;2.90;;;2.00;;
53961;SDS011;39868;53.398;6.564;2022-07-10T02:38:45;5.72;;;2.00;;
53961;SDS011;39868;53.398;6.564;2022-07-10T02:41:12;3.03;;;1.90;;
53961;SDS011;39868;53.398;6.564;2022-07-10T02:43:40;4.00;;;1.70;;
53961;SDS011;39868;53.398;6.564;2022-07-10T02:46:07;6.68;;;2.17;;
53961;SDS011;39868;53.398;6.564;2022-07-10T02:48:36;3.72;;;1.92;;
53961;SDS011;39868;53.398;6.564;2022-07-10T02:51:04;2.17;;;1.80;;
53961;SDS011;39868;53.398;6.564;2022-07-10T02:53:31;3.22;;;2.00;;
53961;SDS011;39868;53.398;6.564;2022-07-10T02:55:59;3.58;;;1.70;;
53961;SDS011;39868;53.398;6.564;2022-07-10T02:58:26;5.72;;;1.90;;
53961;SDS011;39868;53.398;6.564;2022-07-10T03:00:53;6.47;;;2.33;;
53961;SDS011;39868;53.398;6.564;2022-07-10T03:03:21;3.28;;;2.10;;
53961;SDS011;39868;53.398;6.564;2022-07-10T03:05:50;3.85;;;2.25;;
53961;SDS011;39868;53.398;6.564;2022-07-10T03:08:18;7.50;;;2.25;;
53961;SDS011;39868;53.398;6.564;2022-07-10T03:10:45;2.75;;;1.92;;
53961;SDS011;39868;53.398;6.564;2022-07-10T03:13:13;4.95;;;1.98;;
53961;SDS011;39868;53.398;6.564;2022-07-10T03:15:40;4.38;;;2.10;;
53961;SDS011;39868;53.398;6.564;2022-07-10T03:18:08;2.83;;;1.90;;
53961;SDS011;39868;53.398;6.564;2022-07-10T03:20:35;3.63;;;2.10;;
53961;SDS011;39868;53.398;6.564;2022-07-10T03:23:02;4.63;;;1.95;;
53961;SDS011;39868;53.398;6.564;2022-07-10T03:25:30;5.30;;;2.10;;
53961;SDS011;39868;53.398;6.564;2022-07-10T03:27:57;4.43;;;2.15;;
53961;SDS011;39868;53.398;6.564;2022-07-10T03:30:25;2.72;;;2.10;;
53961;SDS011;39868;53.398;6.564;2022-07-10T03:32:52;3.70;;;2.10;;
53961;SDS011;39868;53.398;6.564;2022-07-10T03:35:19;3.88;;;2.05;;
53961;SDS011;39868;53.398;6.564;2022-07-10T03:37:47;7.28;;;2.40;;
53961;SDS011;39868;53.398;6.564;2022-07-10T03:40:14;2.60;;;2.08;;
53961;SDS011;39868;53.398;6.564;2022-07-10T03:42:42;3.20;;;2.15;;
53961;SDS011;39868;53.398;6.564;2022-07-10T03:45:09;3.55;;;2.72;;
53961;SDS011;39868;53.398;6.564;2022-07-10T03:47:37;2.38;;;1.95;;
53961;SDS011;39868;53.398;6.564;2022-07-10T03:50:04;5.03;;;2.30;;
53961;SDS011;39868;53.398;6.564;2022-07-10T03:52:32;8.13;;;2.28;;
53961;SDS011;39868;53.398;6.564;2022-07-10T03:54:59;5.40;;;2.30;;
53961;SDS011;39868;53.398;6.564;2022-07-10T03:57:27;4.57;;;2.65;;
53961;SDS011;39868;53.398;6.564;2022-07-10T04:00:13;6.82;;;2.67;;
53961;SDS011;39868;53.398;6.564;2022-07-10T04:02:41;5.65;;;2.22;;
53961;SDS011;39868;53.398;6.564;2022-07-10T04:05:09;6.78;;;2.55;;
53961;SDS011;39868;53.398;6.564;2022-07-10T04:07:36;5.57;;;2.05;;
53961;SDS011;39868;53.398;6.564;2022-07-10T04:10:04;5.25;;;2.28;;
53961;SDS011;39868;53.398;6.564;2022-07-10T04:12:32;5.72;;;2.03;;
53961;SDS011;39868;53.398;6.564;2022-07-10T04:14:59;5.63;;;2.47;;
53961;SDS011;39868;53.398;6.564;2022-07-10T04:17:27;7.85;;;2.45;;
53961;SDS011;39868;53.398;6.564;2022-07-10T04:19:55;3.40;;;2.38;;
53961;SDS011;39868;53.398;6.564;2022-07-10T04:22:22;8.68;;;2.42;;
53961;SDS011;39868;53.398;6.564;2022-07-10T04:24:50;3.67;;;2.35;;
53961;SDS011;39868;53.398;6.564;2022-07-10T04:27:17;3.25;;;2.13;;
53961;SDS011;39868;53.398;6.564;2022-07-10T04:29:45;4.32;;;2.33;;
53961;SDS011;39868;53.398;6.564;2022-07-10T04:32:13;4.28;;;2.30;;
53961;SDS011;39868;53.398;6.564;2022-07-10T04:34:41;4.97;;;2.17;;
53961;SDS011;39868;53.398;6.564;2022-07-10T04:37:09;4.93;;;2.45;;
53961;SDS011;39868;53.398;6.564;2022-07-10T04:39:37;2.88;;;2.55;;
53961;SDS011;39868;53.398;6.564;2022-07-10T04:42:05;4.30;;;2.75;;
53961;SDS011;39868;53.398;6.564;2022-07-10T04:44:34;4.43;;;2.40;;
53961;SDS011;39868;53.398;6.564;2022-07-10T04:47:03;3.40;;;2.15;;
53961;SDS011;39868;53.398;6.564;2022-07-10T04:49:31;6.35;;;2.38;;
53961;SDS011;39868;53.398;6.564;2022-07-10T04:51:59;4.35;;;2.60;;
53961;SDS011;39868;53.398;6.564;2022-07-10T04:54:27;4.35;;;2.42;;
53961;SDS011;39868;53.398;6.564;2022-07-10T04:56:54;3.55;;;2.40;;
53961;SDS011;39868;53.398;6.564;2022-07-10T04:59:22;3.75;;;2.38;;
53961;SDS011;39868;53.398;6.564;2022-07-10T05:01:49;2.95;;;2.20;;
53961;SDS011;39868;53.398;6.564;2022-07-10T05:04:17;7.82;;;2.63;;
53961;SDS011;39868;53.398;6.564;2022-07-10T05:06:44;4.60;;;2.60;;
53961;SDS011;39868;53.398;6.564;2022-07-10T05:09:11;5.95;;;2.67;;
53961;SDS011;39868;53.398;6.564;2022-07-10T05:11:39;4.07;;;2.28;;
53961;SDS011;39868;53.398;6.564;2022-07-10T05:14:06;7.63;;;3.10;;
53961;SDS011;39868;53.398;6.564;2022-07-10T05:16:34;2.42;;;2.17;;
53961;SDS011;39868;53.398;6.564;2022-07-10T05:19:01;2.33;;;2.13;;
53961;SDS011;39868;53.398;6.564;2022-07-10T05:21:29;2.90;;;2.38;;
53961;SDS011;39868;53.398;6.564;2022-07-10T05:23:56;3.92;;;2.22;;
53961;SDS011;39868;53.398;6.564;2022-07-10T05:26:23;9.38;;;2.65;;
53961;SDS011;39868;53.398;6.564;2022-07-10T05:28:51;2.35;;;2.10;;
53961;SDS011;39868;53.398;6.564;2022-07-10T05:31:18;5.32;;;2.40;;
53961;SDS011;39868;53.398;6.564;2022-07-10T05:33:46;4.22;;;2.33;;
53961;SDS011;39868;53.398;6.564;2022-07-10T05:36:13;3.50;;;2.10;;
53961;SDS011;39868;53.398;6.564;2022-07-10T05:38:40;5.18;;;3.03;;
53961;SDS011;39868;53.398;6.564;2022-07-10T05:41:08;3.17;;;2.55;;
53961;SDS011;39868;53.398;6.564;2022-07-10T05:43:35;4.22;;;2.80;;
53961;SDS011;39868;53.398;6.564;2022-07-10T05:46:03;4.63;;;2.42;;
53961;SDS011;39868;53.398;6.564;2022-07-10T05:48:30;2.72;;;2.20;;
53961;SDS011;39868;53.398;6.564;2022-07-10T05:50:58;7.05;;;2.75;;
53961;SDS011;39868;53.398;6.564;2022-07-10T05:53:46;4.57;;;2.20;;
53961;SDS011;39868;53.398;6.564;2022-07-10T05:56:13;5.55;;;2.33;;
53961;SDS011;39868;53.398;6.564;2022-07-10T05:58:41;3.22;;;2.40;;
53961;SDS011;39868;53.398;6.564;2022-07-10T06:01:08;5.55;;;2.00;;
53961;SDS011;39868;53.398;6.564;2022-07-10T06:03:36;4.68;;;2.17;;
53961;SDS011;39868;53.398;6.564;2022-07-10T06:06:03;3.65;;;2.33;;
53961;SDS011;39868;53.398;6.564;2022-07-10T06:08:31;2.97;;;2.10;;
53961;SDS011;39868;53.398;6.564;2022-07-10T06:10:58;2.47;;;2.28;;
53961;SDS011;39868;53.398;6.564;2022-07-10T06:13:25;5.63;;;2.30;;
53961;SDS011;39868;53.398;6.564;2022-07-10T06:15:53;4.00;;;2.47;;
53961;SDS011;39868;53.398;6.564;2022-07-10T06:18:20;4.13;;;2.40;;
53961;SDS011;39868;53.398;6.564;2022-07-10T06:20:47;5.75;;;2.30;;
53961;SDS011;39868;53.398;6.564;2022-07-10T06:23:15;2.20;;;1.95;;
53961;SDS011;39868;53.398;6.564;2022-07-10T06:25:42;2.88;;;1.90;;
53961;SDS011;39868;53.398;6.564;2022-07-10T06:28:10;5.18;;;2.25;;
53961;SDS011;39868;53.398;6.564;2022-07-10T06:30:37;5.38;;;2.30;;
53961;SDS011;39868;53.398;6.564;2022-07-10T06:33:04;3.35;;;2.08;;
53961;SDS011;39868;53.398;6.564;2022-07-10T06:35:32;2.15;;;1.90;;
53961;SDS011;39868;53.398;6.564;2022-07-10T06:37:59;2.10;;;2.00;;
53961;SDS011;39868;53.398;6.564;2022-07-10T06:40:31;3.47;;;2.25;;
53961;SDS011;39868;53.398;6.564;2022-07-10T06:43:03;2.42;;;1.92;;
53961;SDS011;39868;53.398;6.564;2022-07-10T06:45:31;4.80;;;2.17;;
53961;SDS011;39868;53.398;6.564;2022-07-10T06:47:58;4.50;;;2.33;;
53961;SDS011;39868;53.398;6.564;2022-07-10T06:50:26;4.05;;;2.13;;
53961;SDS011;39868;53.398;6.564;2022-07-10T06:52:58;2.45;;;2.05;;
53961;SDS011;39868;53.398;6.564;2022-07-10T06:55:26;2.65;;;1.90;;
53961;SDS011;39868;53.398;6.564;2022-07-10T06:57:54;5.40;;;2.45;;
53961;SDS011;39868;53.398;6.564;2022-07-10T07:00:22;2.20;;;2.10;;
53961;SDS011;39868;53.398;6.564;2022-07-10T07:02:50;2.20;;;2.00;;
53961;SDS011;39868;53.398;6.564;2022-07-10T07:05:17;5.97;;;2.30;;
53961;SDS011;39868;53.398;6.564;2022-07-10T07:07:45;4.10;;;2.17;;
53961;SDS011;39868;53.398;6.564;2022-07-10T07:10:13;2.38;;;2.00;;
53961;SDS011;39868;53.398;6.564;2022-07-10T07:12:40;4.20;;;2.33;;
53961;SDS011;39868;53.398;6.564;2022-07-10T07:15:08;2.50;;;2.20;;
53961;SDS011;39868;53.398;6.564;2022-07-10T07:17:39;2.75;;;2.33;;
53961;SDS011;39868;53.398;6.564;2022-07-10T07:20:25;3.78;;;2.28;;
53961;SDS011;39868;53.398;6.564;2022-07-10T07:23:12;3.13;;;2.20;;
53961;SDS011;39868;53.398;6.564;2022-07-10T07:25:39;2.63;;;2.25;;
53961;SDS011;39868;53.398;6.564;2022-07-10T07:28:14;2.00;;;1.90;;
53961;SDS011;39868;53.398;6.564;2022-07-10T07:30:42;3.67;;;2.10;;
53961;SDS011;39868;53.398;6.564;2022-07-10T07:33:10;5.90;;;2.47;;
53961;SDS011;39868;53.398;6.564;2022-07-10T07:35:38;5.82;;;2.25;;
53961;SDS011;39868;53.398;6.564;2022-07-10T07:38:06;3.67;;;2.10;;
53961;SDS011;39868;53.398;6.564;2022-07-10T07:40:34;3.58;;;1.85;;
53961;SDS011;39868;53.398;6.564;2022-07-10T07:43:04;2.95;;;2.08;;
53961;SDS011;39868;53.398;6.564;2022-07-10T07:45:32;2.15;;;1.95;;
53961;SDS011;39868;53.398;6.564;2022-07-10T07:47:59;3.33;;;1.90;;
53961;SDS011;39868;53.398;6.564;2022-07-10T07:50:29;2.10;;;1.95;;
53961;SDS011;39868;53.398;6.564;2022-07-10T07:53:02;1.83;;;1.73;;
53961;SDS011;39868;53.398;6.564;2022-07-10T07:55:31;5.05;;;2.90;;
53961;SDS011;39868;53.398;6.564;2022-07-10T07:58:00;2.05;;;1.38;;
53961;SDS011;39868;53.398;6.564;2022-07-10T08:00:28;3.33;;;0.65;;
53961;SDS011;39868;53.398;6.564;2022-07-10T08:02:57;2.92;;;0.70;;
53961;SDS011;39868;53.398;6.564;2022-07-10T08:05:25;2.97;;;1.05;;
53961;SDS011;39868;53.398;6.564;2022-07-10T08:07:53;3.67;;;0.88;;
53961;SDS011;39868;53.398;6.564;2022-07-10T08:10:23;1.27;;;0.90;;
53961;SDS011;39868;53.398;6.564;2022-07-10T08:12:53;3.03;;;0.90;;
53961;SDS011;39868;53.398;6.564;2022-07-10T08:15:21;1.40;;;1.30;;
53961;SDS011;39868;53.398;6.564;2022-07-10T08:17:50;1.77;;;1.38;;
53961;SDS011;39868;53.398;6.564;2022-07-10T08:20:19;2.45;;;1.50;;
53961;SDS011;39868;53.398;6.564;2022-07-10T08:22:47;2.88;;;0.90;;
53961;SDS011;39868;53.398;6.564;2022-07-10T08:25:22;0.30;;;0.30;;
53961;SDS011;39868;53.398;6.564;2022-07-10T08:27:50;1.90;;;1.10;;
53961;SDS011;39868;53.398;6.564;2022-07-10T08:30:18;3.42;;;1.50;;
53961;SDS011;39868;53.398;6.564;2022-07-10T08:32:45;1.75;;;1.42;;
53961;SDS011;39868;53.398;6.564;2022-07-10T08:35:13;3.35;;;1.95;;
53961;SDS011;39868;53.398;6.564;2022-07-10T08:37:41;2.00;;;1.80;;
53961;SDS011;39868;53.398;6.564;2022-07-10T08:40:11;2.13;;;1.65;;
53961;SDS011;39868;53.398;6.564;2022-07-10T08:42:40;2.30;;;1.60;;
53961;SDS011;39868;53.398;6.564;2022-07-10T08:45:08;5.07;;;1.83;;
53961;SDS011;39868;53.398;6.564;2022-07-10T08:47:36;2.95;;;2.00;;
53961;SDS011;39868;53.398;6.564;2022-07-10T08:50:07;2.25;;;2.10;;
53961;SDS011;39868;53.398;6.564;2022-07-10T08:52:48;2.35;;;2.08;;
53961;SDS011;39868;53.398;6.564;2022-07-10T08:55:25;1.95;;;1.85;;
53961;SDS011;39868;53.398;6.564;2022-07-10T08:57:53;3.78;;;2.70;;
53961;SDS011;39868;53.398;6.564;2022-07-10T09:00:24;2.83;;;2.00;;
53961;SDS011;39868;53.398;6.564;2022-07-10T09:02:55;2.13;;;2.03;;
53961;SDS011;39868;53.398;6.564;2022-07-10T09:05:23;3.05;;;2.10;;
53961;SDS011;39868;53.398;6.564;2022-07-10T09:07:52;2.75;;;2.10;;
53961;SDS011;39868;53.398;6.564;2022-07-10T09:10:25;2.55;;;2.22;;
53961;SDS011;39868;53.398;6.564;2022-07-10T09:12:54;2.40;;;2.20;;
53961;SDS011;39868;53.398;6.564;2022-07-10T09:15:29;2.20;;;2.10;;
53961;SDS011;39868;53.398;6.564;2022-07-10T09:18:00;4.75;;;2.30;;
53961;SDS011;39868;53.398;6.564;2022-07-10T09:20:32;3.65;;;2.50;;
53961;SDS011;39868;53.398;6.564;2022-07-10T09:25:48;2.10;;;2.00;;
53961;SDS011;39868;53.398;6.564;2022-07-10T09:28:18;2.50;;;2.30;;
53961;SDS011;39868;53.398;6.564;2022-07-10T09:30:47;4.10;;;2.50;;
53961;SDS011;39868;53.398;6.564;2022-07-10T09:36:00;2.42;;;2.25;;
53961;SDS011;39868;53.398;6.564;2022-07-10T09:41:32;2.42;;;2.20;;
53961;SDS011;39868;53.398;6.564;2022-07-10T09:43:59;3.10;;;2.40;;
53961;SDS011;39868;53.398;6.564;2022-07-10T09:46:32;3.38;;;2.10;;
53961;SDS011;39868;53.398;6.564;2022-07-10T09:51:38;2.60;;;1.92;;
53961;SDS011;39868;53.398;6.564;2022-07-10T09:54:15;3.30;;;1.70;;
53961;SDS011;39868;53.398;6.564;2022-07-10T09:56:44;1.55;;;1.20;;
53961;SDS011;39868;53.398;6.564;2022-07-10T09:59:18;1.75;;;1.65;;
53961;SDS011;39868;53.398;6.564;2022-07-10T10:01:48;1.92;;;1.40;;
53961;SDS011;39868;53.398;6.564;2022-07-10T10:04:20;2.20;;;2.00;;
53961;SDS011;39868;53.398;6.564;2022-07-10T10:07:00;3.17;;;2.67;;
53961;SDS011;39868;53.398;6.564;2022-07-10T10:09:38;3.50;;;3.20;;
53961;SDS011;39868;53.398;6.564;2022-07-10T10:12:12;3.75;;;3.45;;
53961;SDS011;39868;53.398;6.564;2022-07-10T10:14:44;3.38;;;3.00;;
53961;SDS011;39868;53.398;6.564;2022-07-10T10:17:12;3.85;;;2.63;;
53961;SDS011;39868;53.398;6.564;2022-07-10T10:19:43;3.45;;;2.88;;
53961;SDS011;39868;53.398;6.564;2022-07-10T10:22:31;3.20;;;2.97;;
53961;SDS011;39868;53.398;6.564;2022-07-10T10:25:01;4.35;;;2.38;;
53961;SDS011;39868;53.398;6.564;2022-07-10T10:27:30;2.88;;;2.65;;
53961;SDS011;39868;53.398;6.564;2022-07-10T10:29:58;4.53;;;2.75;;
53961;SDS011;39868;53.398;6.564;2022-07-10T10:32:27;3.75;;;2.40;;
53961;SDS011;39868;53.398;6.564;2022-07-10T10:34:55;3.35;;;3.05;;
53961;SDS011;39868;53.398;6.564;2022-07-10T10:40:29;7.03;;;2.50;;
53961;SDS011;39868;53.398;6.564;2022-07-10T10:42:58;3.08;;;1.75;;
53961;SDS011;39868;53.398;6.564;2022-07-10T10:45:50;1.83;;;1.15;;
53961;SDS011;39868;53.398;6.564;2022-07-10T10:48:21;4.38;;;1.90;;
53961;SDS011;39868;53.398;6.564;2022-07-10T10:51:04;3.03;;;1.50;;
53961;SDS011;39868;53.398;6.564;2022-07-10T10:53:32;5.15;;;1.75;;
53961;SDS011;39868;53.398;6.564;2022-07-10T10:58:27;6.30;;;1.80;;
53961;SDS011;39868;53.398;6.564;2022-07-10T11:01:03;2.97;;;1.48;;
53961;SDS011;39868;53.398;6.564;2022-07-10T11:14:27;2.40;;;1.50;;
53961;SDS011;39868;53.398;6.564;2022-07-10T11:16:56;1.88;;;1.77;;
53961;SDS011;39868;53.398;6.564;2022-07-10T11:19:24;2.42;;;1.10;;
53961;SDS011;39868;53.398;6.564;2022-07-10T11:22:43;3.28;;;1.15;;
53961;SDS011;39868;53.398;6.564;2022-07-10T11:25:01;4.45;;;2.40;;
53961;SDS011;39868;53.398;6.564;2022-07-10T11:30:43;6.07;;;2.90;;
53961;SDS011;39868;53.398;6.564;2022-07-10T11:33:11;3.38;;;2.00;;
53961;SDS011;39868;53.398;6.564;2022-07-10T11:35:39;6.57;;;2.50;;
53961;SDS011;39868;53.398;6.564;2022-07-10T11:38:07;4.32;;;2.40;;
53961;SDS011;39868;53.398;6.564;2022-07-10T11:40:37;2.38;;;2.10;;
53961;SDS011;39868;53.398;6.564;2022-07-10T11:43:05;3.17;;;2.20;;
53961;SDS011;39868;53.398;6.564;2022-07-10T11:45:35;5.03;;;2.20;;
53961;SDS011;39868;53.398;6.564;2022-07-10T11:48:04;2.03;;;1.92;;
53961;SDS011;39868;53.398;6.564;2022-07-10T11:50:34;3.33;;;2.38;;
53961;SDS011;39868;53.398;6.564;2022-07-10T11:53:05;4.10;;;2.00;;
53961;SDS011;39868;53.398;6.564;2022-07-10T11:55:33;4.53;;;2.08;;
53961;SDS011;39868;53.398;6.564;2022-07-10T11:58:17;1.73;;;1.40;;
53961;SDS011;39868;53.398;6.564;2022-07-10T12:01:18;1.08;;;0.90;;
53961;SDS011;39868;53.398;6.564;2022-07-10T12:03:41;2.20;;;1.50;;
53961;SDS011;39868;53.398;6.564;2022-07-10T12:06:09;3.10;;;2.22;;
53961;SDS011;39868;53.398;6.564;2022-07-10T12:08:46;3.50;;;2.13;;
53961;SDS011;39868;53.398;6.564;2022-07-10T12:11:16;4.35;;;2.13;;
53961;SDS011;39868;53.398;6.564;2022-07-10T12:13:46;2.33;;;1.90;;
53961;SDS011;39868;53.398;6.564;2022-07-10T12:16:15;2.63;;;2.30;;
53961;SDS011;39868;53.398;6.564;2022-07-10T12:18:44;3.63;;;2.30;;
53961;SDS011;39868;53.398;6.564;2022-07-10T12:21:13;2.22;;;2.03;;
53961;SDS011;39868;53.398;6.564;2022-07-10T12:23:42;5.05;;;2.30;;
53961;SDS011;39868;53.398;6.564;2022-07-10T12:26:11;4.32;;;2.40;;
53961;SDS011;39868;53.398;6.564;2022-07-10T12:28:47;6.50;;;2.30;;
53961;SDS011;39868;53.398;6.564;2022-07-10T12:34:13;2.42;;;2.22;;
53961;SDS011;39868;53.398;6.564;2022-07-10T12:36:41;5.55;;;2.25;;
53961;SDS011;39868;53.398;6.564;2022-07-10T12:39:17;4.88;;;2.22;;
53961;SDS011;39868;53.398;6.564;2022-07-10T12:44:42;4.90;;;2.33;;
53961;SDS011;39868;53.398;6.564;2022-07-10T12:47:17;3.63;;;2.47;;
53961;SDS011;39868;53.398;6.564;2022-07-10T12:49:47;3.55;;;2.30;;
53961;SDS011;39868;53.398;6.564;2022-07-10T12:52:29;6.27;;;2.37;;
53961;SDS011;39868;53.398;6.564;2022-07-10T12:55:08;2.92;;;2.50;;
53961;SDS011;39868;53.398;6.564;2022-07-10T12:57:59;3.28;;;2.30;;
53961;SDS011;39868;53.398;6.564;2022-07-10T13:00:32;3.03;;;2.30;;
53961;SDS011;39868;53.398;6.564;2022-07-10T13:03:09;4.53;;;2.35;;
53961;SDS011;39868;53.398;6.564;2022-07-10T13:05:41;4.10;;;2.45;;
53961;SDS011;39868;53.398;6.564;2022-07-10T13:08:10;2.63;;;2.42;;
53961;SDS011;39868;53.398;6.564;2022-07-10T13:10:45;3.30;;;2.67;;
53961;SDS011;39868;53.398;6.564;2022-07-10T13:13:17;3.35;;;2.20;;
53961;SDS011;39868;53.398;6.564;2022-07-10T13:15:45;5.20;;;2.60;;
53961;SDS011;39868;53.398;6.564;2022-07-10T13:18:18;2.50;;;2.30;;
53961;SDS011;39868;53.398;6.564;2022-07-10T13:20:48;4.53;;;2.50;;
53961;SDS011;39868;53.398;6.564;2022-07-10T13:23:25;4.88;;;2.45;;
53961;SDS011;39868;53.398;6.564;2022-07-10T13:25:56;3.65;;;2.30;;
53961;SDS011;39868;53.398;6.564;2022-07-10T13:28:26;3.28;;;2.63;;
53961;SDS011;39868;53.398;6.564;2022-07-10T13:30:53;2.53;;;2.33;;
53961;SDS011;39868;53.398;6.564;2022-07-10T13:33:22;4.07;;;2.40;;
53961;SDS011;39868;53.398;6.564;2022-07-10T13:35:52;6.55;;;2.60;;
53961;SDS011;39868;53.398;6.564;2022-07-10T13:38:20;4.97;;;2.40;;
53961;SDS011;39868;53.398;6.564;2022-07-10T13:40:48;3.28;;;2.40;;
53961;SDS011;39868;53.398;6.564;2022-07-10T13:43:16;2.55;;;2.35;;
53961;SDS011;39868;53.398;6.564;2022-07-10T13:45:43;5.53;;;2.67;;
53961;SDS011;39868;53.398;6.564;2022-07-10T13:48:11;2.63;;;2.40;;
53961;SDS011;39868;53.398;6.564;2022-07-10T13:50:41;4.28;;;2.47;;
53961;SDS011;39868;53.398;6.564;2022-07-10T13:53:10;4.43;;;2.30;;
53961;SDS011;39868;53.398;6.564;2022-07-10T13:55:37;2.75;;;2.22;;
53961;SDS011;39868;53.398;6.564;2022-07-10T13:58:05;2.50;;;2.22;;
53961;SDS011;39868;53.398;6.564;2022-07-10T14:00:33;7.22;;;2.40;;
53961;SDS011;39868;53.398;6.564;2022-07-10T14:03:00;2.55;;;2.03;;
53961;SDS011;39868;53.398;6.564;2022-07-10T14:05:28;4.38;;;2.20;;
53961;SDS011;39868;53.398;6.564;2022-07-10T14:07:56;3.38;;;2.45;;
53961;SDS011;39868;53.398;6.564;2022-07-10T14:10:24;2.50;;;2.20;;
53961;SDS011;39868;53.398;6.564;2022-07-10T14:12:53;2.47;;;2.28;;
53961;SDS011;39868;53.398;6.564;2022-07-10T14:15:22;8.02;;;2.85;;
53961;SDS011;39868;53.398;6.564;2022-07-10T14:17:49;3.85;;;2.20;;
53961;SDS011;39868;53.398;6.564;2022-07-10T14:20:18;2.63;;;2.28;;
53961;SDS011;39868;53.398;6.564;2022-07-10T14:22:46;2.42;;;2.22;;
53961;SDS011;39868;53.398;6.564;2022-07-10T14:25:14;4.95;;;2.30;;
53961;SDS011;39868;53.398;6.564;2022-07-10T14:27:42;5.40;;;2.20;;
53961;SDS011;39868;53.398;6.564;2022-07-10T14:30:10;5.00;;;2.42;;
53961;SDS011;39868;53.398;6.564;2022-07-10T14:32:38;4.40;;;2.25;;
53961;SDS011;39868;53.398;6.564;2022-07-10T14:35:05;3.53;;;2.50;;
53961;SDS011;39868;53.398;6.564;2022-07-10T14:37:33;6.57;;;2.97;;
53961;SDS011;39868;53.398;6.564;2022-07-10T14:40:02;4.80;;;2.20;;
53961;SDS011;39868;53.398;6.564;2022-07-10T14:42:30;4.22;;;2.47;;
53961;SDS011;39868;53.398;6.564;2022-07-10T14:44:57;3.83;;;2.25;;
53961;SDS011;39868;53.398;6.564;2022-07-10T14:47:25;4.68;;;2.28;;
53961;SDS011;39868;53.398;6.564;2022-07-10T14:49:55;3.13;;;2.38;;
53961;SDS011;39868;53.398;6.564;2022-07-10T14:52:23;5.35;;;2.30;;
53961;SDS011;39868;53.398;6.564;2022-07-10T14:54:52;3.45;;;2.40;;
53961;SDS011;39868;53.398;6.564;2022-07-10T14:57:19;7.32;;;2.47;;
53961;SDS011;39868;53.398;6.564;2022-07-10T14:59:47;4.07;;;2.50;;
53961;SDS011;39868;53.398;6.564;2022-07-10T15:02:15;4.05;;;2.17;;
53961;SDS011;39868;53.398;6.564;2022-07-10T15:04:42;3.85;;;2.53;;
53961;SDS011;39868;53.398;6.564;2022-07-10T15:07:10;5.43;;;2.47;;
53961;SDS011;39868;53.398;6.564;2022-07-10T15:09:37;4.35;;;2.55;;
53961;SDS011;39868;53.398;6.564;2022-07-10T15:12:05;2.90;;;2.05;;
53961;SDS011;39868;53.398;6.564;2022-07-10T15:14:32;3.15;;;2.30;;
53961;SDS011;39868;53.398;6.564;2022-07-10T15:17:00;4.85;;;2.70;;
53961;SDS011;39868;53.398;6.564;2022-07-10T15:19:28;4.13;;;2.72;;
53961;SDS011;39868;53.398;6.564;2022-07-10T15:21:56;4.75;;;2.28;;
53961;SDS011;39868;53.398;6.564;2022-07-10T15:24:23;3.85;;;2.17;;
53961;SDS011;39868;53.398;6.564;2022-07-10T15:26:51;4.70;;;2.38;;
53961;SDS011;39868;53.398;6.564;2022-07-10T15:29:18;5.07;;;2.10;;
53961;SDS011;39868;53.398;6.564;2022-07-10T15:31:53;2.50;;;2.30;;
53961;SDS011;39868;53.398;6.564;2022-07-10T15:34:25;2.88;;;2.22;;
53961;SDS011;39868;53.398;6.564;2022-07-10T15:36:52;4.00;;;2.40;;